createdAt,value
2022-10-03T00:00:19.045Z,1.98
2022-10-03T00:05:59.055Z,1.80
2022-10-03T00:11:37.262Z,1.73
2022-10-03T00:17:12.036Z,1.92
2022-10-03T00:22:49.085Z,2.40
2022-10-03T00:28:25.147Z,1.90
2022-10-03T00:34:04.095Z,1.83
2022-10-03T00:39:57.067Z,2.05
2022-10-03T00:45:57.111Z,2.22
2022-10-03T00:51:39.357Z,1.92
2022-10-03T00:57:23.080Z,2.10
2022-10-03T01:02:59.108Z,2.20
2022-10-03T01:08:53.074Z,1.90
2022-10-03T01:14:33.080Z,1.95
2022-10-03T01:20:15.084Z,1.85
2022-10-03T01:25:50.108Z,1.75
2022-10-03T01:31:24.151Z,2.20
2022-10-03T01:36:59.138Z,2.22
2022-10-03T01:42:31.093Z,2.13
2022-10-03T01:48:03.088Z,2.13
2022-10-03T01:53:35.086Z,2.03
2022-10-03T01:59:09.198Z,1.67
2022-10-03T02:04:59.103Z,2.05
2022-10-03T02:10:35.135Z,2.03
2022-10-03T02:16:13.147Z,2.15
2022-10-03T02:21:42.221Z,2.17
2022-10-03T02:27:28.145Z,2.10
2022-10-03T02:33:34.116Z,2.13
2022-10-03T02:39:35.138Z,2.13
2022-10-03T02:45:34.266Z,1.88
2022-10-03T02:51:37.615Z,1.90
2022-10-03T02:57:36.117Z,2.15
2022-10-03T03:03:32.267Z,2.15
2022-10-03T03:09:10.171Z,1.70
2022-10-03T03:15:07.204Z,2.10
2022-10-03T03:20:53.173Z,2.20
2022-10-03T03:26:38.206Z,2.08
2022-10-03T03:32:12.185Z,2.17
2022-10-03T03:37:47.154Z,2.05
2022-10-03T03:43:41.299Z,2.00
2022-10-03T03:49:22.199Z,1.90
2022-10-03T03:55:08.180Z,2.30
2022-10-03T04:00:38.201Z,1.88
2022-10-03T04:06:26.136Z,2.00
2022-10-03T04:12:08.146Z,2.00
2022-10-03T04:23:48.166Z,2.00
2022-10-03T04:29:39.162Z,2.20
2022-10-03T04:35:20.214Z,2.20
2022-10-03T04:40:58.197Z,2.40
2022-10-03T04:46:39.203Z,1.90
2022-10-03T04:52:11.162Z,2.30
2022-10-03T04:57:46.250Z,2.30
2022-10-03T05:03:22.239Z,2.20
2022-10-03T05:09:02.327Z,2.30
2022-10-03T05:14:36.246Z,2.20
2022-10-03T05:20:18.213Z,2.38
2022-10-03T05:26:23.214Z,2.40
2022-10-03T05:32:05.310Z,2.08
2022-10-03T05:37:58.247Z,2.53
2022-10-03T05:43:45.251Z,2.53
2022-10-03T05:49:30.229Z,2.30
2022-10-03T05:55:15.237Z,2.80
2022-10-03T06:00:54.286Z,2.55
2022-10-03T06:06:35.225Z,2.40
2022-10-03T06:12:13.243Z,2.50
2022-10-03T06:18:09.254Z,2.65
2022-10-03T06:24:04.281Z,2.70
2022-10-03T06:36:04.249Z,2.40
2022-10-03T06:42:02.303Z,2.67
2022-10-03T06:47:47.232Z,2.60
2022-10-03T06:53:28.238Z,2.38
2022-10-03T06:59:26.243Z,2.10
2022-10-03T07:05:29.253Z,2.35
2022-10-03T07:11:16.266Z,2.00
2022-10-03T07:17:24.275Z,2.20
2022-10-03T07:23:20.267Z,2.30
2022-10-03T07:29:17.274Z,2.10
2022-10-03T07:35:17.324Z,2.17
2022-10-03T07:41:14.278Z,2.10
2022-10-03T07:47:05.277Z,2.28
2022-10-03T07:52:52.258Z,2.27
2022-10-03T07:58:49.254Z,2.50
2022-10-03T08:04:42.283Z,2.40
2022-10-03T08:10:28.273Z,2.20
2022-10-03T08:16:11.374Z,2.33
2022-10-03T08:21:45.289Z,1.83
2022-10-03T08:27:39.340Z,2.20
2022-10-03T08:33:19.308Z,1.90
2022-10-03T08:39:09.318Z,1.80
2022-10-03T08:44:56.444Z,1.90
2022-10-03T08:51:00.315Z,2.10
2022-10-03T08:56:30.300Z,2.22
2022-10-03T09:02:21.451Z,1.60
2022-10-03T09:08:20.325Z,1.67
2022-10-03T09:14:51.349Z,1.70
2022-10-03T09:20:43.351Z,2.00
2022-10-03T09:32:18.344Z,1.30
2022-10-03T09:44:10.339Z,1.48
2022-10-03T09:50:15.334Z,1.33
2022-10-03T09:55:59.371Z,1.38
2022-10-03T10:01:36.364Z,1.60
2022-10-03T10:07:49.584Z,1.15
2022-10-03T10:14:06.287Z,1.15
2022-10-03T10:20:00.402Z,1.55
2022-10-03T10:25:52.382Z,1.13
2022-10-03T10:32:04.382Z,1.35
2022-10-03T10:43:56.402Z,1.42
2022-10-03T10:49:53.374Z,1.10
2022-10-03T10:55:58.421Z,1.20
2022-10-03T11:01:59.403Z,1.08
2022-10-03T11:08:11.448Z,1.20
2022-10-03T11:20:13.457Z,1.30
2022-10-03T11:32:49.440Z,1.02
2022-10-03T11:38:22.419Z,1.13
2022-10-03T11:44:16.414Z,0.90
2022-10-03T11:50:04.496Z,1.10
2022-10-03T11:55:43.542Z,1.27
2022-10-03T12:01:25.405Z,0.95
2022-10-03T12:07:26.413Z,1.20
2022-10-03T12:12:55.441Z,1.10
2022-10-03T12:18:26.435Z,1.02
2022-10-03T12:24:11.424Z,2.80
2022-10-03T12:29:40.460Z,1.05
2022-10-03T12:35:40.450Z,1.10
2022-10-03T12:41:18.450Z,1.00
2022-10-03T12:46:53.449Z,1.10
2022-10-03T12:52:21.420Z,0.93
2022-10-03T12:58:00.433Z,0.80
2022-10-03T13:03:45.521Z,1.10
2022-10-03T13:09:32.545Z,0.98
2022-10-03T13:15:27.588Z,0.90
2022-10-03T13:20:56.495Z,1.00
2022-10-03T13:26:30.533Z,0.98
2022-10-03T13:32:09.443Z,1.00
2022-10-03T13:37:45.510Z,1.05
2022-10-03T13:43:12.508Z,1.20
2022-10-03T13:48:38.534Z,0.90
2022-10-03T13:54:17.525Z,1.02
2022-10-03T13:59:56.591Z,0.82
2022-10-03T14:05:46.513Z,0.80
2022-10-03T14:11:24.496Z,1.00
2022-10-03T14:16:52.501Z,1.10
2022-10-03T14:22:37.526Z,1.02
2022-10-03T14:28:17.613Z,0.88
2022-10-03T14:33:50.639Z,0.80
2022-10-03T14:39:28.503Z,0.95
2022-10-03T14:45:03.512Z,0.70
2022-10-03T14:50:33.519Z,0.70
2022-10-03T14:56:09.504Z,0.88
2022-10-03T15:01:39.710Z,1.10
2022-10-03T15:07:08.520Z,0.80
2022-10-03T15:12:36.538Z,4.25
2022-10-03T15:18:07.551Z,1.20
2022-10-03T15:23:43.548Z,1.00
2022-10-03T15:29:12.533Z,1.00
2022-10-03T15:34:45.525Z,0.80
2022-10-03T15:40:17.514Z,1.10
2022-10-03T15:45:47.607Z,0.90
2022-10-03T15:51:24.571Z,1.17
2022-10-03T15:57:15.575Z,1.67
2022-10-03T16:02:44.571Z,1.27
2022-10-03T16:08:20.561Z,1.20
2022-10-03T16:13:48.606Z,2.85
2022-10-03T16:19:36.543Z,1.17
2022-10-03T16:25:28.583Z,3.22
2022-10-03T16:30:59.610Z,1.23
2022-10-03T16:36:25.613Z,0.90
